createdAt,value
2019-04-07T00:01:13.908Z,21.12
2019-04-07T00:03:47.121Z,21.73
2019-04-07T00:06:20.340Z,23.18
2019-04-07T00:08:53.593Z,20.55
2019-04-07T00:11:26.687Z,23.00
2019-04-07T00:14:00.993Z,20.55
2019-04-07T00:16:33.900Z,21.80
2019-04-07T00:19:06.728Z,21.97
2019-04-07T00:21:39.654Z,21.05
2019-04-07T00:24:12.589Z,23.47
2019-04-07T00:26:45.490Z,20.80
2019-04-07T00:29:19.880Z,22.58
2019-04-07T00:31:52.889Z,23.50
2019-04-07T00:34:25.790Z,24.35
2019-04-07T00:36:59.002Z,24.65
2019-04-07T00:39:32.304Z,24.67
2019-04-07T00:42:05.302Z,22.62
2019-04-07T00:44:38.882Z,22.87
2019-04-07T00:47:11.878Z,24.37
2019-04-07T00:49:45.080Z,22.52
2019-04-07T00:52:22.171Z,24.10
2019-04-07T00:54:55.562Z,25.08
2019-04-07T00:57:30.118Z,23.83
2019-04-07T01:00:04.404Z,25.75
2019-04-07T01:02:38.919Z,25.00
2019-04-07T01:05:12.717Z,22.13
2019-04-07T01:07:46.323Z,25.40
2019-04-07T01:10:19.462Z,28.27
2019-04-07T01:12:52.354Z,27.13
2019-04-07T01:15:25.361Z,24.63
2019-04-07T01:17:58.764Z,26.30
2019-04-07T01:20:32.971Z,25.17
2019-04-07T01:23:08.120Z,23.62
2019-04-07T01:25:41.170Z,26.25
2019-04-07T01:28:14.199Z,25.25
2019-04-07T01:30:48.015Z,25.57
2019-04-07T01:33:22.350Z,23.15
2019-04-07T01:35:57.147Z,23.30
2019-04-07T01:38:30.738Z,22.02
2019-04-07T01:41:15.304Z,22.17
2019-04-07T01:44:00.934Z,24.10
2019-04-07T01:47:01.585Z,25.43
2019-04-07T01:49:46.592Z,24.92
2019-04-07T01:52:50.475Z,25.85
2019-04-07T01:55:45.532Z,25.10
2019-04-07T01:58:40.712Z,24.77
2019-04-07T02:01:28.677Z,26.33
2019-04-07T02:04:20.445Z,24.52
2019-04-07T02:07:12.132Z,27.35
2019-04-07T02:09:57.258Z,26.85
2019-04-07T02:12:42.512Z,25.70
2019-04-07T02:15:40.596Z,26.82
2019-04-07T02:18:18.789Z,24.35
2019-04-07T02:21:09.678Z,27.22
2019-04-07T02:23:52.913Z,27.60
2019-04-07T02:26:40.595Z,27.32
2019-04-07T02:29:40.039Z,27.95
2019-04-07T02:32:42.038Z,25.30
2019-04-07T02:35:40.301Z,28.38
2019-04-07T02:38:27.790Z,30.17
2019-04-07T02:41:19.876Z,28.57
2019-04-07T02:44:23.905Z,29.05
2019-04-07T02:47:18.448Z,27.70
2019-04-07T02:50:08.872Z,26.12
2019-04-07T02:52:57.179Z,28.65
2019-04-07T02:55:39.136Z,28.30
2019-04-07T02:58:27.153Z,29.02
2019-04-07T03:01:31.622Z,29.80
2019-04-07T03:04:24.216Z,28.90
2019-04-07T03:07:15.244Z,29.30
2019-04-07T03:10:07.681Z,29.63
2019-04-07T03:12:48.751Z,29.32
2019-04-07T03:15:41.358Z,29.92
2019-04-07T03:18:31.813Z,30.27
2019-04-07T03:21:27.942Z,30.27
2019-04-07T03:24:17.389Z,29.52
2019-04-07T03:27:15.732Z,29.67
2019-04-07T03:30:11.465Z,30.15
2019-04-07T03:33:05.828Z,28.35
2019-04-07T03:36:04.023Z,27.60
2019-04-07T03:38:59.065Z,28.52
2019-04-07T03:41:44.001Z,30.77
2019-04-07T03:44:25.620Z,27.87
2019-04-07T03:47:18.377Z,29.80
2019-04-07T03:50:03.354Z,30.17
2019-04-07T03:52:55.181Z,29.82
2019-04-07T03:56:05.952Z,29.00
2019-04-07T03:58:49.458Z,30.85
2019-04-07T04:01:41.449Z,28.90
2019-04-07T04:04:31.392Z,31.70
2019-04-07T04:07:29.972Z,30.00
2019-04-07T04:10:14.192Z,30.70
2019-04-07T04:13:09.133Z,30.75
2019-04-07T04:15:53.205Z,32.28
2019-04-07T04:18:26.389Z,28.30
2019-04-07T04:20:59.656Z,31.55
2019-04-07T04:23:33.464Z,30.95
2019-04-07T04:26:06.601Z,31.02
2019-04-07T04:28:39.431Z,31.95
2019-04-07T04:31:13.000Z,30.48
2019-04-07T04:33:46.406Z,28.83
2019-04-07T04:36:19.395Z,27.45
2019-04-07T04:38:52.822Z,29.20
2019-04-07T04:41:27.393Z,31.25
2019-04-07T04:44:02.184Z,29.35
2019-04-07T04:46:35.205Z,29.80
2019-04-07T04:49:08.048Z,30.12
2019-04-07T04:51:42.651Z,29.35
2019-04-07T04:54:17.206Z,29.32
2019-04-07T04:56:50.378Z,29.32
2019-04-07T04:59:23.338Z,28.40
2019-04-07T05:01:56.451Z,28.67
2019-04-07T05:04:29.403Z,29.85
2019-04-07T05:07:02.189Z,29.40
2019-04-07T05:09:44.281Z,29.63
2019-04-07T05:12:10.543Z,31.00
2019-04-07T05:14:43.351Z,29.98
2019-04-07T05:17:16.424Z,31.23
2019-04-07T05:19:49.803Z,31.25
2019-04-07T05:22:22.756Z,32.88
2019-04-07T05:24:55.617Z,35.68
2019-04-07T05:27:28.398Z,35.52
2019-04-07T05:30:01.272Z,31.20
2019-04-07T05:32:34.181Z,31.85
2019-04-07T05:35:07.881Z,31.57
2019-04-07T05:37:41.762Z,35.83
2019-04-07T05:40:15.494Z,33.78
2019-04-07T05:42:48.469Z,33.75
2019-04-07T05:45:21.468Z,31.12
2019-04-07T05:47:54.406Z,31.17
2019-04-07T05:50:28.772Z,31.90
2019-04-07T05:53:01.974Z,28.42
2019-04-07T05:55:34.824Z,30.17
2019-04-07T05:58:08.498Z,31.15
2019-04-07T06:00:45.757Z,32.95
2019-04-07T06:03:17.592Z,29.72
2019-04-07T06:05:51.253Z,27.15
2019-04-07T06:08:33.798Z,30.52
2019-04-07T06:11:01.555Z,31.10
2019-04-07T06:13:35.524Z,29.65
2019-04-07T06:16:09.485Z,31.82
2019-04-07T06:18:43.362Z,27.40
2019-04-07T06:21:17.266Z,28.75
2019-04-07T06:23:50.778Z,26.75
2019-04-07T06:26:24.023Z,28.73
2019-04-07T06:28:58.756Z,27.58
2019-04-07T06:31:33.753Z,25.95
2019-04-07T06:34:08.169Z,26.93
2019-04-07T06:36:41.053Z,25.57
2019-04-07T06:39:17.168Z,29.85
2019-04-07T06:41:48.921Z,28.73
2019-04-07T06:44:23.188Z,25.45
2019-04-07T06:47:21.469Z,27.10
2019-04-07T06:50:14.130Z,30.50
2019-04-07T06:53:20.635Z,29.02
2019-04-07T06:56:14.523Z,30.10
2019-04-07T06:59:13.855Z,28.83
2019-04-07T07:02:06.485Z,27.90
2019-04-07T07:05:07.296Z,26.48
2019-04-07T07:07:59.705Z,28.38
2019-04-07T07:10:55.216Z,26.75
2019-04-07T07:13:41.323Z,27.07
2019-04-07T07:16:41.086Z,27.20
2019-04-07T07:19:29.562Z,29.12
2019-04-07T07:22:26.796Z,26.20
2019-04-07T07:25:01.278Z,27.67
2019-04-07T07:27:38.845Z,25.70
2019-04-07T07:30:10.650Z,26.27
2019-04-07T07:32:44.237Z,22.70
2019-04-07T07:35:18.021Z,28.10
2019-04-07T07:37:51.127Z,27.42
2019-04-07T07:40:24.200Z,25.95
2019-04-07T07:42:59.115Z,26.10
2019-04-07T07:45:37.280Z,23.65
2019-04-07T07:48:10.925Z,22.90
2019-04-07T07:50:44.598Z,18.52
2019-04-07T07:53:21.896Z,24.05
2019-04-07T07:55:53.517Z,20.50
2019-04-07T07:58:30.823Z,21.70
2019-04-07T08:01:01.754Z,23.87
2019-04-07T08:03:35.181Z,19.60
2019-04-07T08:06:08.491Z,21.02
2019-04-07T08:08:45.178Z,19.30
2019-04-07T08:11:17.544Z,23.07
2019-04-07T08:13:53.626Z,19.15
2019-04-07T08:16:29.385Z,18.52
2019-04-07T08:19:01.556Z,16.52
2019-04-07T08:21:34.528Z,16.87
2019-04-07T08:24:08.060Z,22.37
2019-04-07T08:26:41.059Z,18.20
2019-04-07T08:29:14.708Z,23.77
2019-04-07T08:31:51.476Z,17.48
2019-04-07T08:34:23.430Z,20.43
2019-04-07T08:36:57.442Z,17.30
2019-04-07T08:39:33.568Z,17.45
2019-04-07T08:42:09.736Z,18.75
2019-04-07T08:44:39.751Z,19.77
2019-04-07T08:47:18.877Z,16.75
2019-04-07T08:49:48.083Z,18.25
2019-04-07T08:52:21.244Z,18.40
2019-04-07T08:54:54.043Z,15.43
2019-04-07T08:57:30.099Z,18.67
2019-04-07T09:00:01.637Z,15.65
2019-04-07T09:02:36.071Z,17.30
2019-04-07T09:05:10.357Z,14.70
2019-04-07T09:07:43.547Z,14.85
2019-04-07T09:10:21.778Z,13.43
2019-04-07T09:12:58.708Z,10.58
2019-04-07T09:15:36.889Z,16.15
2019-04-07T09:18:28.619Z,14.78
2019-04-07T09:21:20.459Z,16.17
2019-04-07T09:24:12.655Z,13.55
2019-04-07T09:26:56.433Z,14.35
2019-04-07T09:29:58.172Z,12.37
2019-04-07T09:32:54.732Z,15.35
2019-04-07T09:35:46.621Z,14.33
2019-04-07T09:38:51.277Z,13.90
2019-04-07T09:41:35.307Z,14.90
2019-04-07T09:44:37.240Z,14.05
2019-04-07T09:47:25.910Z,13.93
2019-04-07T09:50:28.536Z,14.15
2019-04-07T09:53:21.430Z,16.57
2019-04-07T09:56:10.576Z,16.67
2019-04-07T09:59:07.882Z,14.18
2019-04-07T10:02:08.208Z,15.60
2019-04-07T10:05:05.837Z,17.10
2019-04-07T10:08:07.294Z,15.30
2019-04-07T10:11:04.139Z,15.30
2019-04-07T10:13:52.020Z,14.70
2019-04-07T10:16:33.897Z,16.07
2019-04-07T10:19:28.296Z,17.48
2019-04-07T10:22:21.206Z,13.58
2019-04-07T10:25:12.119Z,15.85
2019-04-07T10:28:02.964Z,15.32
2019-04-07T10:30:58.584Z,14.23
2019-04-07T10:34:03.042Z,15.18
2019-04-07T10:36:53.600Z,14.65
2019-04-07T10:39:56.814Z,13.83
2019-04-07T10:42:55.332Z,14.78
2019-04-07T10:45:47.270Z,14.63
2019-04-07T10:48:31.577Z,14.33
2019-04-07T10:51:36.878Z,15.53
2019-04-07T10:54:18.859Z,14.28
2019-04-07T10:57:02.342Z,14.23
2019-04-07T10:59:56.867Z,13.32
2019-04-07T11:03:00.847Z,14.03
2019-04-07T11:05:57.066Z,14.47
2019-04-07T11:08:53.557Z,15.18
2019-04-07T11:12:04.625Z,14.25
2019-04-07T11:15:00.079Z,14.28
2019-04-07T11:17:45.429Z,15.35
2019-04-07T11:20:33.864Z,15.70
2019-04-07T11:23:19.820Z,15.03
2019-04-07T11:26:31.018Z,14.87
2019-04-07T11:29:14.417Z,14.65
2019-04-07T11:31:57.917Z,12.60
2019-04-07T11:34:41.416Z,13.43
2019-04-07T11:37:32.853Z,11.88
2019-04-07T11:40:30.361Z,15.10
2019-04-07T11:43:14.118Z,15.32
2019-04-07T11:46:06.883Z,13.85
2019-04-07T11:48:54.885Z,15.13
2019-04-07T11:51:54.113Z,16.23
2019-04-07T11:54:47.892Z,15.32
2019-04-07T11:57:43.279Z,15.20
2019-04-07T12:00:35.815Z,15.45
2019-04-07T12:03:40.433Z,14.63
2019-04-07T12:06:28.133Z,14.58
2019-04-07T12:09:29.389Z,12.82
2019-04-07T12:12:22.824Z,14.03
2019-04-07T12:15:15.941Z,15.15
2019-04-07T12:18:14.921Z,13.70
2019-04-07T12:20:50.762Z,13.72
2019-04-07T12:23:34.419Z,13.78
2019-04-07T12:26:24.849Z,12.63
2019-04-07T12:29:14.796Z,14.35
2019-04-07T12:32:06.779Z,11.57
2019-04-07T12:35:05.261Z,10.63
2019-04-07T12:37:46.707Z,14.38
2019-04-07T12:40:52.931Z,12.03
2019-04-07T12:43:49.532Z,13.45
2019-04-07T12:46:38.733Z,12.53
2019-04-07T12:49:34.356Z,13.88
2019-04-07T12:52:28.082Z,12.63
2019-04-07T12:55:17.850Z,12.60
2019-04-07T12:58:10.766Z,11.10
2019-04-07T13:01:19.967Z,12.75
2019-04-07T13:04:12.225Z,11.80
2019-04-07T13:07:04.186Z,12.80
2019-04-07T13:10:04.179Z,17.60
2019-04-07T13:12:59.210Z,13.55
2019-04-07T13:16:00.290Z,12.90
2019-04-07T13:18:43.854Z,13.30
2019-04-07T13:21:34.124Z,11.63
2019-04-07T13:24:30.156Z,11.60
2019-04-07T13:27:04.075Z,13.18
2019-04-07T13:29:48.279Z,12.78
2019-04-07T13:32:39.270Z,12.00
2019-04-07T13:35:19.627Z,11.12
2019-04-07T13:38:04.470Z,11.15
2019-04-07T13:40:57.478Z,12.30
2019-04-07T13:43:52.789Z,12.60
2019-04-07T13:46:36.065Z,13.40
2019-04-07T13:49:27.491Z,13.05
2019-04-07T13:52:24.685Z,13.08
2019-04-07T13:55:17.163Z,12.75
2019-04-07T13:58:25.009Z,11.70
2019-04-07T14:01:26.751Z,10.35
2019-04-07T14:04:34.426Z,12.25
2019-04-07T14:07:29.504Z,11.70
2019-04-07T14:10:27.478Z,10.90
2019-04-07T14:13:40.367Z,11.85
2019-04-07T14:16:31.267Z,12.73
2019-04-07T14:19:24.240Z,8.95
2019-04-07T14:22:25.564Z,8.93
2019-04-07T14:25:23.502Z,10.05
2019-04-07T14:28:04.699Z,8.48
2019-04-07T14:30:45.519Z,10.68
2019-04-07T14:33:49.524Z,11.97
2019-04-07T14:36:40.495Z,10.35
2019-04-07T14:39:24.885Z,12.73
2019-04-07T14:42:22.485Z,9.95
2019-04-07T14:45:14.546Z,9.18
2019-04-07T14:48:05.408Z,10.35
2019-04-07T14:50:57.116Z,10.72
2019-04-07T14:54:04.393Z,9.63
2019-04-07T14:57:09.377Z,10.72
2019-04-07T14:59:54.148Z,10.03
2019-04-07T15:02:26.585Z,9.73
2019-04-07T15:05:04.060Z,11.93
2019-04-07T15:08:05.126Z,10.05
2019-04-07T15:10:41.924Z,10.13
2019-04-07T15:13:18.206Z,9.63
2019-04-07T15:15:52.400Z,10.63
2019-04-07T15:18:25.547Z,8.55
2019-04-07T15:20:59.299Z,10.95
2019-04-07T15:23:33.372Z,9.58
2019-04-07T15:26:06.407Z,9.73
2019-04-07T15:28:39.228Z,9.33
2019-04-07T15:31:12.059Z,9.03
2019-04-07T15:33:45.606Z,9.50
2019-04-07T15:36:19.649Z,9.33
2019-04-07T15:38:55.394Z,12.05
2019-04-07T15:41:27.547Z,11.55
2019-04-07T15:44:01.563Z,9.00
2019-04-07T15:46:35.462Z,12.07
2019-04-07T15:49:08.837Z,9.93
2019-04-07T15:51:41.858Z,11.03
2019-04-07T15:54:17.658Z,9.78
2019-04-07T15:56:50.479Z,12.23
2019-04-07T15:59:24.856Z,10.43
2019-04-07T16:01:58.586Z,11.33
2019-04-07T16:04:31.949Z,9.88
2019-04-07T16:07:05.066Z,11.00
2019-04-07T16:09:48.831Z,10.63
2019-04-07T16:12:13.462Z,12.40
2019-04-07T16:14:47.090Z,10.13
2019-04-07T16:17:21.092Z,10.20
2019-04-07T16:19:56.232Z,11.33
2019-04-07T16:22:29.222Z,12.80
2019-04-07T16:25:10.084Z,12.05
2019-04-07T16:27:47.475Z,11.70
2019-04-07T16:30:21.606Z,12.55
2019-04-07T16:33:01.967Z,13.95
2019-04-07T16:35:38.182Z,16.27
2019-04-07T16:38:13.050Z,15.20
2019-04-07T16:41:02.689Z,14.05
2019-04-07T16:43:37.772Z,17.65
2019-04-07T16:46:13.651Z,16.50
2019-04-07T16:48:53.323Z,18.25
2019-04-07T16:51:29.478Z,18.87
2019-04-07T16:54:08.721Z,16.10
2019-04-07T16:56:45.728Z,14.18
2019-04-07T16:59:32.760Z,14.87
2019-04-07T17:02:17.894Z,12.90
2019-04-07T17:05:12.024Z,16.15
2019-04-07T17:07:55.413Z,17.30
2019-04-07T17:10:52.642Z,19.57
2019-04-07T17:13:39.491Z,24.05
2019-04-07T17:16:12.221Z,25.75
2019-04-07T17:18:56.200Z,32.85
2019-04-07T17:21:39.346Z,25.68
2019-04-07T17:24:27.183Z,25.75
2019-04-07T17:27:00.216Z,24.47
2019-04-07T17:29:37.221Z,26.85
2019-04-07T17:32:16.842Z,29.23
2019-04-07T17:34:58.028Z,30.43
2019-04-07T17:37:37.406Z,40.10
2019-04-07T17:40:15.769Z,41.53
2019-04-07T17:42:52.748Z,34.92
2019-04-07T17:45:43.150Z,27.82
2019-04-07T17:48:37.340Z,26.17
2019-04-07T17:51:25.497Z,24.65
2019-04-07T17:54:32.523Z,28.77
2019-04-07T17:57:25.855Z,29.48
2019-04-07T18:00:23.723Z,35.23
2019-04-07T18:03:10.294Z,36.83
2019-04-07T18:06:03.811Z,31.50
2019-04-07T18:08:48.568Z,27.42
2019-04-07T18:11:37.764Z,20.90
2019-04-07T18:14:31.294Z,21.25
2019-04-07T18:17:28.905Z,31.95
2019-04-07T18:20:25.863Z,43.15
2019-04-07T18:23:28.966Z,61.60
2019-04-07T18:26:27.422Z,59.73
2019-04-07T18:29:17.884Z,80.60
2019-04-07T18:32:16.645Z,71.15
2019-04-07T18:35:09.481Z,62.33
2019-04-07T18:37:55.900Z,61.28
2019-04-07T18:40:55.778Z,70.85
2019-04-07T18:44:01.916Z,81.12
2019-04-07T18:47:04.685Z,75.57
2019-04-07T18:49:58.121Z,252.13
2019-04-07T18:52:53.225Z,121.17
2019-04-07T18:55:42.138Z,95.07
2019-04-07T18:58:39.872Z,81.53
2019-04-07T19:01:41.357Z,124.90
2019-04-07T19:04:45.692Z,91.15
2019-04-07T19:07:48.637Z,81.08
2019-04-07T19:10:38.887Z,86.65
2019-04-07T19:13:27.413Z,75.90
2019-04-07T19:16:10.970Z,65.83
2019-04-07T19:19:10.847Z,62.95
2019-04-07T19:22:08.904Z,59.03
2019-04-07T19:25:09.214Z,63.45
2019-04-07T19:28:03.425Z,132.97
2019-04-07T19:30:46.880Z,124.95
2019-04-07T19:34:01.268Z,122.25
2019-04-07T19:37:03.962Z,120.80
2019-04-07T19:40:06.038Z,120.33
2019-04-07T19:42:58.366Z,117.42
2019-04-07T19:46:09.626Z,149.00
2019-04-07T19:49:04.287Z,145.22
2019-04-07T19:51:57.396Z,125.02
2019-04-07T19:54:47.132Z,116.53
2019-04-07T19:57:42.721Z,99.70
2019-04-07T20:00:52.859Z,109.10
2019-04-07T20:03:40.503Z,94.15
2019-04-07T20:06:32.539Z,93.00
2019-04-07T20:09:21.560Z,105.65
2019-04-07T20:12:11.572Z,102.72
2019-04-07T20:15:16.370Z,101.62
2019-04-07T20:18:11.131Z,95.47
2019-04-07T20:21:08.303Z,96.85
2019-04-07T20:24:09.312Z,100.60
2019-04-07T20:27:17.562Z,102.62
2019-04-07T20:30:17.677Z,105.63
2019-04-07T20:33:10.352Z,101.20
2019-04-07T20:36:06.592Z,105.03
2019-04-07T20:39:05.067Z,101.55
2019-04-07T20:42:00.968Z,79.32
2019-04-07T20:44:59.986Z,72.12
2019-04-07T20:48:00.083Z,81.25
2019-04-07T20:51:00.499Z,133.15
2019-04-07T20:53:52.033Z,136.07
2019-04-07T20:56:59.732Z,103.05
2019-04-07T20:59:50.403Z,87.17
2019-04-07T21:02:48.728Z,97.75
2019-04-07T21:05:35.666Z,85.65
2019-04-07T21:08:15.052Z,74.75
2019-04-07T21:11:01.558Z,77.40
2019-04-07T21:14:01.774Z,102.90
2019-04-07T21:16:53.023Z,76.60
2019-04-07T21:19:54.390Z,88.40
2019-04-07T21:22:51.936Z,116.12
2019-04-07T21:25:57.281Z,154.27
2019-04-07T21:28:49.298Z,134.90
2019-04-07T21:31:41.017Z,116.65
2019-04-07T21:34:41.709Z,103.67
2019-04-07T21:37:25.421Z,86.32
2019-04-07T21:40:08.651Z,88.72
2019-04-07T21:43:06.443Z,84.80
2019-04-07T21:45:53.012Z,82.50
2019-04-07T21:48:50.913Z,82.42
2019-04-07T21:51:37.762Z,84.10
2019-04-07T21:54:30.697Z,85.65
2019-04-07T21:57:21.395Z,87.40
2019-04-07T22:00:12.627Z,79.60
2019-04-07T22:02:59.168Z,82.53
2019-04-07T22:05:49.440Z,82.78
2019-04-07T22:08:30.530Z,82.82
2019-04-07T22:11:03.664Z,82.75
2019-04-07T22:13:36.795Z,86.78
2019-04-07T22:16:10.080Z,97.65
2019-04-07T22:18:43.112Z,98.37
2019-04-07T22:21:16.994Z,96.87
2019-04-07T22:23:50.712Z,89.58
2019-04-07T22:26:23.537Z,91.05
2019-04-07T22:28:57.834Z,84.35
2019-04-07T22:31:36.746Z,80.38
2019-04-07T22:34:09.592Z,79.42
2019-04-07T22:36:45.466Z,87.75
2019-04-07T22:39:17.304Z,80.42
2019-04-07T22:41:50.532Z,69.12
2019-04-07T22:44:24.476Z,76.12
2019-04-07T22:46:57.325Z,73.90
2019-04-07T22:49:32.226Z,61.70
2019-04-07T22:52:05.489Z,64.45
2019-04-07T22:54:38.950Z,62.73
2019-04-07T22:57:14.154Z,59.73
2019-04-07T22:59:47.174Z,55.95
2019-04-07T23:02:20.186Z,54.95
2019-04-07T23:04:53.029Z,55.95
2019-04-07T23:07:25.848Z,54.77
2019-04-07T23:09:58.983Z,48.68
2019-04-07T23:12:32.851Z,49.18
2019-04-07T23:15:06.468Z,47.50
2019-04-07T23:17:40.475Z,46.23
2019-04-07T23:20:15.092Z,48.63
2019-04-07T23:22:48.058Z,44.58
2019-04-07T23:25:22.895Z,45.40
2019-04-07T23:27:56.313Z,44.38
2019-04-07T23:30:31.250Z,44.05
2019-04-07T23:33:04.365Z,43.55
2019-04-07T23:35:37.296Z,46.50
2019-04-07T23:38:10.121Z,42.40
2019-04-07T23:40:43.160Z,46.13
2019-04-07T23:43:16.026Z,47.98
2019-04-07T23:45:49.648Z,43.55
2019-04-07T23:48:22.580Z,42.15
2019-04-07T23:50:56.158Z,46.50
2019-04-07T23:54:11.383Z,45.33
2019-04-07T23:56:45.472Z,43.63
2019-04-07T23:59:18.727Z,45.25
